CheckWX is a tool to help pilots better visualize weather data.  It is not intended as a substitute for an official pre-flight weather briefing.

18:27:31 UTC

KNSI METAR
San Nicolas Island Nolf Airport
San Nicolas Island, California, USA
Current

2 hours ago

KNSI 201656Z 30024G32KT 10SM FEW005 18/13 A2998 RMK AO2 PK WND 30032/1654 SLP147 T01780128 $
Observed
Aug-20 @ 16:56 UTC
Wind
  • 300° at 24 KTS
  • Gusting to 32 KTS
Visibility
10 SM
Flight Rules
VFR
Cloud Levels
  • Few at 500' AGL
Temperature
18°C / 64°F
Dewpoint
13°C / 55°F
Humidity
73%
Altimeter
29.98" Hg
Pressure
1015.22 hPa
Previous

3 hours ago

KNSI 201556Z 30023G31KT 10SM SCT005 17/13 A2997 RMK AO2 PK WND 30032/1534 SLP144 T01720128 $
Observed
Aug-20 @ 15:56 UTC
Wind
  • 300° at 23 KTS
  • Gusting to 31 KTS
Visibility
10 SM
Flight Rules
VFR
Cloud Levels
  • Scattered at 500' AGL
Temperature
17°C / 63°F
Dewpoint
13°C / 55°F
Humidity
77%
Altimeter
29.97" Hg
Pressure
1014.92 hPa
Previous

3 hours ago

KNSI 201540Z 29025G32KT 10SM SCT005 17/13 A2997 RMK AO2 PK WND 30032/1534 T01720128 $
Observed
Aug-20 @ 15:40 UTC
Wind
  • 290° at 25 KTS
  • Gusting to 32 KTS
Visibility
10 SM
Flight Rules
VFR
Cloud Levels
  • Scattered at 500' AGL
Temperature
17°C / 63°F
Dewpoint
13°C / 55°F
Humidity
77%
Altimeter
29.97" Hg
Pressure
1014.92 hPa